createdAt,value
2017-03-25T00:00:47.559Z,1032.1
2017-03-25T00:01:49.899Z,1032.1
2017-03-25T00:02:52.235Z,1032.1
2017-03-25T00:03:55.075Z,1032.1
2017-03-25T00:04:57.283Z,1032.1
2017-03-25T00:06:00.375Z,1032
2017-03-25T00:07:02.714Z,1032
2017-03-25T00:08:05.054Z,1032
2017-03-25T00:09:07.900Z,1032.1
2017-03-25T00:10:10.237Z,1032.1
2017-03-25T00:11:13.326Z,1032.1
2017-03-25T00:12:15.663Z,1032.1
2017-03-25T00:14:20.776Z,1032
2017-03-25T00:14:51.402Z,1032
2017-03-25T00:15:23.543Z,1032
2017-03-25T00:16:28.971Z,1032.1
2017-03-25T00:17:28.289Z,1032
2017-03-25T00:18:31.129Z,1032.1
2017-03-25T00:19:33.468Z,1032.1
2017-03-25T00:20:36.310Z,1032.1
2017-03-25T00:21:38.654Z,1032.1
2017-03-25T00:22:41.361Z,1032
2017-03-25T00:23:44.201Z,1032
2017-03-25T00:24:46.537Z,1032
2017-03-25T00:25:49.381Z,1032.1
2017-03-25T00:26:51.718Z,1032.1
2017-03-25T00:27:54.552Z,1032.1
2017-03-25T00:28:56.889Z,1032
2017-03-25T00:29:59.734Z,1032
2017-03-25T00:31:02.071Z,1032
2017-03-25T00:33:07.677Z,1032.1
2017-03-25T00:34:10.018Z,1032.1
2017-03-25T00:35:12.355Z,1032.2
2017-03-25T00:36:15.061Z,1032.1
2017-03-25T00:37:17.901Z,1032.1
2017-03-25T00:38:20.515Z,1032.1
2017-03-25T00:39:22.853Z,1032.1
2017-03-25T00:40:25.692Z,1032.1
2017-03-25T00:41:28.025Z,1032.1
2017-03-25T00:42:30.869Z,1032.1
2017-03-25T00:43:33.555Z,1032.1
2017-03-25T00:44:35.900Z,1032.1
2017-03-25T00:45:38.238Z,1032
2017-03-25T00:46:41.081Z,1032
2017-03-25T00:47:43.416Z,1032
2017-03-25T00:48:46.669Z,1032
2017-03-25T00:49:49.012Z,1032.1
2017-03-25T00:50:51.212Z,1032
2017-03-25T00:51:54.057Z,1032
2017-03-25T00:52:56.393Z,1032
2017-03-25T00:53:59.535Z,1032
2017-03-25T00:55:01.875Z,1032
2017-03-25T00:56:04.212Z,1032
2017-03-25T00:57:07.056Z,1031.9
2017-03-25T00:58:09.268Z,1031.9
2017-03-25T00:59:12.409Z,1031.9
2017-03-25T01:00:14.628Z,1031.9
2017-03-25T01:01:16.965Z,1031.9
2017-03-25T01:02:19.806Z,1031.9
2017-03-25T01:03:22.142Z,1031.8
2017-03-25T01:04:25.283Z,1031.8
2017-03-25T01:05:27.620Z,1031.7
2017-03-25T01:06:29.957Z,1031.8
2017-03-25T01:07:32.804Z,1031.8
2017-03-25T01:08:35.507Z,1031.8
2017-03-25T01:09:38.150Z,1031.8
2017-03-25T01:10:40.490Z,1031.8
2017-03-25T01:11:42.832Z,1031.8
2017-03-25T01:12:45.676Z,1031.8
2017-03-25T01:13:48.022Z,1031.7
2017-03-25T01:14:51.162Z,1031.7
2017-03-25T01:15:53.506Z,1031.7
2017-03-25T01:16:55.844Z,1031.7
2017-03-25T01:17:58.687Z,1031.7
2017-03-25T01:19:01.018Z,1031.7
2017-03-25T01:20:04.165Z,1031.7
2017-03-25T01:21:06.502Z,1031.7
2017-03-25T01:22:08.839Z,1031.8
2017-03-25T01:23:11.696Z,1031.7
2017-03-25T01:25:16.695Z,1031.7
2017-03-25T01:26:19.397Z,1031.6
2017-03-25T01:27:21.734Z,1031.6
2017-03-25T01:28:24.445Z,1031.7
2017-03-25T01:29:26.777Z,1031.7
2017-03-25T01:30:29.732Z,1031.6
2017-03-25T01:31:32.111Z,1031.6
2017-03-25T01:32:34.818Z,1031.6
2017-03-25T01:33:37.156Z,1031.5
2017-03-25T01:34:39.728Z,1031.6
2017-03-25T01:35:42.824Z,1031.5
2017-03-25T01:36:45.162Z,1031.6
2017-03-25T01:37:47.495Z,1031.6
2017-03-25T01:38:50.334Z,1031.7
2017-03-25T01:39:52.672Z,1031.7
2017-03-25T01:40:55.815Z,1031.7
2017-03-25T01:41:57.654Z,1031.6
2017-03-25T01:43:00.494Z,1031.6
2017-03-25T01:44:03.202Z,1031.6
2017-03-25T01:45:05.546Z,1031.6
2017-03-25T01:46:08.695Z,1031.6
2017-03-25T01:47:10.532Z,1031.6
2017-03-25T01:48:13.373Z,1031.5
2017-03-25T01:49:15.713Z,1031.6
2017-03-25T01:50:18.556Z,1031.6
2017-03-25T01:51:21.193Z,1031.6
2017-03-25T01:52:23.532Z,1031.6
2017-03-25T01:53:26.377Z,1031.6
2017-03-25T01:54:28.723Z,1031.6
2017-03-25T01:55:31.564Z,1031.6
2017-03-25T01:56:34.208Z,1031.6
2017-03-25T01:57:36.543Z,1031.6
2017-03-25T01:58:39.246Z,1031.6
2017-03-25T01:59:41.584Z,1031.6
2017-03-25T02:00:44.422Z,1031.6
2017-03-25T02:01:47.058Z,1031.5
2017-03-25T02:02:49.394Z,1031.6
2017-03-25T02:03:51.730Z,1031.6
2017-03-25T02:04:54.570Z,1031.6
2017-03-25T02:05:56.907Z,1031.6
2017-03-25T02:07:00.053Z,1031.6
2017-03-25T02:08:02.389Z,1031.6
2017-03-25T02:10:07.638Z,1031.5
2017-03-25T02:12:12.686Z,1031.6
2017-03-25T02:13:15.026Z,1031.6
2017-03-25T02:14:17.865Z,1031.6
2017-03-25T02:15:20.069Z,1031.6
2017-03-25T02:16:22.909Z,1031.6
2017-03-25T02:17:25.502Z,1031.6
2017-03-25T02:18:27.841Z,1031.6
2017-03-25T02:19:30.688Z,1031.5
2017-03-25T02:20:33.024Z,1031.5
2017-03-25T02:21:35.784Z,1031.6
2017-03-25T02:22:38.430Z,1031.5
2017-03-25T02:23:40.768Z,1031.5
2017-03-25T02:24:43.610Z,1031.6
2017-03-25T02:25:45.947Z,1031.6
2017-03-25T02:26:48.787Z,1031.6
2017-03-25T02:27:51.379Z,1031.6
2017-03-25T02:28:53.577Z,1031.5
2017-03-25T02:29:56.419Z,1031.5
2017-03-25T02:30:58.757Z,1031.5
2017-03-25T02:32:01.600Z,1031.5
2017-03-25T02:33:04.193Z,1031.5
2017-03-25T02:34:06.675Z,1031.5
2017-03-25T02:35:09.246Z,1031.5
2017-03-25T02:36:11.619Z,1031.5
2017-03-25T02:37:14.462Z,1031.5
2017-03-25T02:38:17.149Z,1031.5
2017-03-25T02:39:19.352Z,1031.5
2017-03-25T02:40:22.196Z,1031.4
2017-03-25T02:41:24.401Z,1031.4
2017-03-25T02:42:27.106Z,1031.4
2017-03-25T02:43:30.066Z,1031.4
2017-03-25T02:44:32.408Z,1031.4
2017-03-25T02:45:34.757Z,1031.4
2017-03-25T02:46:37.592Z,1031.4
2017-03-25T02:47:39.928Z,1031.4
2017-03-25T02:48:42.933Z,1031.4
2017-03-25T02:49:45.310Z,1031.4
2017-03-25T02:50:47.718Z,1031.4
2017-03-25T02:51:50.055Z,1031.4
2017-03-25T02:52:52.896Z,1031.4
2017-03-25T02:53:55.488Z,1031.4
2017-03-25T02:54:57.834Z,1031.4
2017-03-25T02:56:00.678Z,1031.4
2017-03-25T02:57:03.015Z,1031.3
2017-03-25T02:58:05.724Z,1031.4
2017-03-25T02:59:08.249Z,1031.3
2017-03-25T03:00:10.590Z,1031.4
2017-03-25T03:01:13.302Z,1031.3
2017-03-25T03:02:16.145Z,1031.3
2017-03-25T03:03:18.587Z,1031.3
2017-03-25T03:04:21.183Z,1031.3
2017-03-25T03:05:23.529Z,1031.3
2017-03-25T03:06:26.374Z,1031.3
2017-03-25T03:07:28.710Z,1031.4
2017-03-25T03:08:31.549Z,1031.4
2017-03-25T03:10:36.547Z,1031.3
2017-03-25T03:11:38.889Z,1031.3
2017-03-25T03:12:41.725Z,1031.3
2017-03-25T03:13:44.066Z,1031.3
2017-03-25T03:14:46.911Z,1031.3
2017-03-25T03:15:49.506Z,1031.3
2017-03-25T03:16:51.843Z,1031.3
2017-03-25T03:17:54.180Z,1031.2
2017-03-25T03:18:57.032Z,1031.2
2017-03-25T03:19:59.374Z,1031.2
2017-03-25T03:21:02.476Z,1031.3
2017-03-25T03:22:04.813Z,1031.3
2017-03-25T03:23:07.021Z,1031.2
2017-03-25T03:24:09.866Z,1031.2
2017-03-25T03:25:12.211Z,1031.3
2017-03-25T03:26:15.362Z,1031.2
2017-03-25T03:27:17.197Z,1031.2
2017-03-25T03:28:19.909Z,1031.2
2017-03-25T03:29:22.761Z,1031.2
2017-03-25T03:30:25.105Z,1031.1
2017-03-25T03:31:27.745Z,1031.1
2017-03-25T03:32:30.152Z,1031.1
2017-03-25T03:33:32.999Z,1031.1
2017-03-25T03:34:35.348Z,1031.1
2017-03-25T03:35:37.922Z,1031.1
2017-03-25T03:36:40.515Z,1031.1
2017-03-25T03:37:42.853Z,1031.1
2017-03-25T03:38:45.696Z,1031.1
2017-03-25T03:39:48.034Z,1031.1
2017-03-25T03:40:50.880Z,1031.1
2017-03-25T03:41:53.472Z,1031.2
2017-03-25T03:42:55.815Z,1031.1
2017-03-25T03:43:58.167Z,1031.2
2017-03-25T03:45:01.012Z,1031.2
2017-03-25T03:46:03.389Z,1031.2
2017-03-25T03:47:06.496Z,1031.1
2017-03-25T03:48:08.342Z,1031.1
2017-03-25T03:49:11.197Z,1031
2017-03-25T03:50:13.542Z,1031
2017-03-25T03:51:16.395Z,1031
2017-03-25T03:52:18.987Z,1031
2017-03-25T03:53:21.330Z,1031
2017-03-25T03:54:23.673Z,1031.1
2017-03-25T03:55:26.521Z,1031.1
2017-03-25T03:56:28.870Z,1031
2017-03-25T03:57:31.829Z,1031
2017-03-25T03:58:34.182Z,1031.1
2017-03-25T03:59:36.529Z,1031.1
2017-03-25T04:00:39.378Z,1031.1
2017-03-25T04:01:41.740Z,1031.1
2017-03-25T04:02:44.336Z,1031.1
2017-03-25T04:03:46.682Z,1031.2
2017-03-25T04:04:49.526Z,1031.2
2017-03-25T04:05:51.927Z,1031.2
2017-03-25T04:06:54.320Z,1031.3
2017-03-25T04:07:57.282Z,1031.2
2017-03-25T04:08:59.628Z,1031.2
2017-03-25T04:10:01.970Z,1031.2
2017-03-25T04:11:04.812Z,1031.2
2017-03-25T04:13:10.309Z,1031.2
2017-03-25T04:14:12.652Z,1031.1
2017-03-25T04:15:15.005Z,1031.1
2017-03-25T04:16:17.345Z,1031.1
2017-03-25T04:17:20.192Z,1031.1
2017-03-25T04:18:22.853Z,1031.1
2017-03-25T04:19:25.199Z,1031
2017-03-25T04:20:27.545Z,1031
2017-03-25T04:21:30.255Z,1030.9
2017-03-25T04:22:33.109Z,1030.9
2017-03-25T04:23:35.765Z,1030.9
2017-03-25T04:24:38.103Z,1030.9
2017-03-25T04:25:40.359Z,1030.9
2017-03-25T04:26:43.204Z,1030.9
2017-03-25T04:27:45.550Z,1030.8
2017-03-25T04:28:48.649Z,1030.8
2017-03-25T04:29:50.496Z,1030.9
2017-03-25T04:30:53.207Z,1030.9
2017-03-25T04:31:56.051Z,1030.8
2017-03-25T04:32:58.395Z,1030.9
2017-03-25T04:35:03.763Z,1030.9
2017-03-25T04:36:06.114Z,1030.9
2017-03-25T04:37:08.449Z,1031
2017-03-25T04:38:11.293Z,1030.9
2017-03-25T04:39:13.637Z,1031
2017-03-25T04:40:16.608Z,1030.9
2017-03-25T04:41:18.946Z,1030.9
2017-03-25T04:42:21.292Z,1030.9
2017-03-25T04:43:24.167Z,1030.9
2017-03-25T04:44:26.233Z,1030.9
2017-03-25T04:45:29.337Z,1030.9
2017-03-25T04:46:31.681Z,1030.9
2017-03-25T04:47:34.020Z,1030.9
2017-03-25T04:48:36.873Z,1030.9
2017-03-25T04:49:39.212Z,1031
2017-03-25T04:50:41.809Z,1030.9
2017-03-25T04:51:44.146Z,1031
2017-03-25T04:52:46.998Z,1031
2017-03-25T04:53:49.343Z,1031
2017-03-25T04:54:52.195Z,1031
2017-03-25T04:55:54.791Z,1031
2017-03-25T04:56:57.132Z,1031
2017-03-25T04:57:59.510Z,1031
2017-03-25T04:59:02.370Z,1031
2017-03-25T05:00:04.717Z,1031
2017-03-25T05:01:07.315Z,1031
2017-03-25T05:02:09.648Z,1031
2017-03-25T05:03:12.509Z,1031
2017-03-25T05:06:20.471Z,1031
2017-03-25T05:07:22.811Z,1031
2017-03-25T05:08:25.154Z,1030.9
2017-03-25T05:09:27.497Z,1030.9
2017-03-25T05:10:30.349Z,1030.9
2017-03-25T05:11:32.941Z,1030.9
2017-03-25T05:12:35.155Z,1030.9
2017-03-25T05:13:38.001Z,1030.9
2017-03-25T05:14:40.214Z,1030.9
2017-03-25T05:15:43.099Z,1030.9
2017-03-25T05:16:45.689Z,1030.9
2017-03-25T05:17:48.032Z,1030.9
2017-03-25T05:18:50.881Z,1030.9
2017-03-25T05:19:53.102Z,1031
2017-03-25T05:20:55.812Z,1030.9
2017-03-25T05:21:58.410Z,1031
2017-03-25T05:23:00.753Z,1030.9
2017-03-25T05:24:03.601Z,1031
2017-03-25T05:26:08.353Z,1030.9
2017-03-25T05:27:11.445Z,1030.9
2017-03-25T05:28:13.787Z,1031
2017-03-25T05:29:16.138Z,1031
2017-03-25T05:30:18.483Z,1031
2017-03-25T05:31:21.331Z,1031.1
2017-03-25T05:32:23.920Z,1031.1
2017-03-25T05:33:26.258Z,1031.1
2017-03-25T05:34:29.105Z,1031.1
2017-03-25T05:35:31.446Z,1031.1
2017-03-25T05:36:33.782Z,1031.1
2017-03-25T05:37:36.928Z,1031.1
2017-03-25T05:38:39.269Z,1031.1
2017-03-25T05:39:41.612Z,1031.1
2017-03-25T05:40:43.956Z,1031
2017-03-25T05:41:46.805Z,1031.1
2017-03-25T05:42:49.401Z,1031.1
2017-03-25T05:43:51.803Z,1031
2017-03-25T05:44:54.148Z,1031
2017-03-25T05:45:57.003Z,1031
2017-03-25T05:46:59.343Z,1031
2017-03-25T05:48:02.440Z,1031.1
2017-03-25T05:49:04.782Z,1031
2017-03-25T05:50:07.129Z,1031.1
2017-03-25T05:51:09.704Z,1031
2017-03-25T05:53:15.205Z,1031.1
2017-03-25T05:54:17.100Z,1031
2017-03-25T05:55:19.947Z,1031
2017-03-25T05:56:22.287Z,1031
2017-03-25T05:57:24.995Z,1031.1
2017-03-25T05:58:27.587Z,1031.1
2017-03-25T05:59:29.928Z,1031
2017-03-25T06:00:32.519Z,1031
2017-03-25T06:01:35.230Z,1031.1
2017-03-25T06:02:37.573Z,1031.1
2017-03-25T06:03:40.678Z,1031
2017-03-25T06:04:43.024Z,1031
2017-03-25T06:05:45.365Z,1031
2017-03-25T06:06:47.709Z,1031
2017-03-25T06:07:50.553Z,1031
2017-03-25T06:08:53.144Z,1031.1
2017-03-25T06:09:55.374Z,1031.1
2017-03-25T06:10:58.225Z,1031.1
2017-03-25T06:12:00.570Z,1031.1
2017-03-25T06:13:03.413Z,1031.1
2017-03-25T06:14:06.010Z,1031.1
2017-03-25T06:15:08.351Z,1031.1
2017-03-25T06:16:10.752Z,1031.1
2017-03-25T06:17:13.595Z,1031.1
2017-03-25T06:18:15.956Z,1031.1
2017-03-25T06:19:19.106Z,1031.1
2017-03-25T06:20:20.943Z,1031.1
2017-03-25T06:21:23.782Z,1031.1
2017-03-25T06:22:26.119Z,1031.1
2017-03-25T06:23:28.962Z,1031.2
2017-03-25T06:24:31.656Z,1031.2
2017-03-25T06:25:34.055Z,1031.2
2017-03-25T06:26:36.394Z,1031.2
2017-03-25T06:27:39.158Z,1031.1
2017-03-25T06:28:41.494Z,1031.1
2017-03-25T06:29:44.590Z,1031.2
2017-03-25T06:30:46.932Z,1031.1
2017-03-25T06:31:49.135Z,1031.2
2017-03-25T06:32:51.850Z,1031.2
2017-03-25T06:33:54.190Z,1031.2
2017-03-25T06:34:57.349Z,1031.2
2017-03-25T06:35:59.684Z,1031.2
2017-03-25T06:37:01.889Z,1031.2
2017-03-25T06:38:04.732Z,1031.2
2017-03-25T06:39:07.083Z,1031.2
2017-03-25T06:40:10.183Z,1031.2
2017-03-25T06:41:12.392Z,1031.2
2017-03-25T06:42:14.732Z,1031.2
2017-03-25T06:43:17.577Z,1031.2
2017-03-25T06:44:19.792Z,1031.2
2017-03-25T06:45:22.888Z,1031.2
2017-03-25T06:46:25.229Z,1031.2
2017-03-25T06:47:27.569Z,1031.2
2017-03-25T06:48:30.423Z,1031.2
2017-03-25T06:49:32.766Z,1031.2
2017-03-25T06:50:35.362Z,1031.2
2017-03-25T06:51:37.704Z,1031.2
2017-03-25T06:52:40.416Z,1031.2
2017-03-25T06:53:43.260Z,1031.2
2017-03-25T06:54:45.608Z,1031.2
2017-03-25T06:55:48.199Z,1031.2
2017-03-25T06:56:50.903Z,1031.2
2017-03-25T06:57:53.108Z,1031.2
2017-03-25T06:58:55.956Z,1031.2
2017-03-25T06:59:58.666Z,1031.2
2017-03-25T07:01:01.258Z,1031.3
2017-03-25T07:02:03.598Z,1031.3
2017-03-25T07:03:06.179Z,1031.3
2017-03-25T07:04:08.523Z,1031.3
2017-03-25T07:05:11.374Z,1031.3
2017-03-25T07:06:14.026Z,1031.2
2017-03-25T07:07:16.370Z,1031.3
2017-03-25T07:08:19.212Z,1031.2
2017-03-25T07:09:21.558Z,1031.2
2017-03-25T07:10:23.902Z,1031.2
2017-03-25T07:11:27.001Z,1031.2
2017-03-25T07:12:29.338Z,1031.2
2017-03-25T07:13:31.908Z,1031.3
2017-03-25T07:14:34.258Z,1031.3
2017-03-25T07:15:37.101Z,1031.3
2017-03-25T07:16:40.114Z,1031.3
2017-03-25T07:17:42.321Z,1031.3
2017-03-25T07:18:44.730Z,1031.3
2017-03-25T07:19:47.078Z,1031.3
2017-03-25T07:20:49.926Z,1031.3
2017-03-25T07:21:52.573Z,1031.3
2017-03-25T07:22:54.921Z,1031.3
2017-03-25T07:23:57.766Z,1031.4
2017-03-25T07:25:00.117Z,1031.3
2017-03-25T07:26:02.960Z,1031.3
2017-03-25T07:27:05.470Z,1031.3
2017-03-25T07:29:10.722Z,1031.3
2017-03-25T07:30:13.068Z,1031.3
2017-03-25T07:31:15.407Z,1031.3
2017-03-25T07:32:18.508Z,1031.3
2017-03-25T07:33:20.849Z,1031.3
2017-03-25T07:34:23.202Z,1031.3
2017-03-25T07:35:26.105Z,1031.3
2017-03-25T07:36:28.458Z,1031.2
2017-03-25T07:37:31.552Z,1031.2
2017-03-25T07:38:33.892Z,1031.2
2017-03-25T07:39:36.237Z,1031.2
2017-03-25T07:40:39.139Z,1031.2
2017-03-25T07:41:41.476Z,1031.3
2017-03-25T07:42:44.622Z,1031.2
2017-03-25T07:43:46.467Z,1031.2
2017-03-25T07:44:49.318Z,1031.2
2017-03-25T07:45:52.029Z,1031.2
2017-03-25T07:46:54.426Z,1031.2
2017-03-25T07:47:57.522Z,1031.2
2017-03-25T07:48:59.877Z,1031.2
2017-03-25T07:50:02.223Z,1031.2
2017-03-25T07:51:04.630Z,1031.2
2017-03-25T07:52:07.482Z,1031.2
2017-03-25T07:53:10.073Z,1031.2
2017-03-25T07:54:12.418Z,1031.2
2017-03-25T07:55:15.263Z,1031.3
2017-03-25T07:56:17.637Z,1031.3
2017-03-25T07:57:20.346Z,1031.3
2017-03-25T07:58:23.306Z,1031.3
2017-03-25T07:59:25.688Z,1031.3
2017-03-25T08:00:28.033Z,1031.3
2017-03-25T08:02:33.285Z,1031.3
2017-03-25T08:03:36.255Z,1031.3
2017-03-25T08:04:38.609Z,1031.3
2017-03-25T08:05:41.451Z,1031.3
2017-03-25T08:06:43.793Z,1031.2
2017-03-25T08:07:46.641Z,1031.1
2017-03-25T08:08:49.296Z,1031.2
2017-03-25T08:09:51.644Z,1031.1
2017-03-25T08:10:54.491Z,1031.1
2017-03-25T08:11:56.827Z,1031.1
2017-03-25T08:12:59.676Z,1031.1
2017-03-25T08:14:02.272Z,1031.2
2017-03-25T08:15:04.629Z,1031.1
2017-03-25T08:16:07.472Z,1031.1
2017-03-25T08:17:09.809Z,1031.1
2017-03-25T08:18:12.655Z,1031.1
2017-03-25T08:19:15.757Z,1031.1
2017-03-25T08:20:17.823Z,1031.1
2017-03-25T08:21:20.542Z,1031.1
2017-03-25T08:22:23.383Z,1031.1
2017-03-25T08:23:25.760Z,1031.1
2017-03-25T08:24:28.872Z,1031.1
2017-03-25T08:25:31.210Z,1031.1
2017-03-25T08:27:36.462Z,1031.1
2017-03-25T08:28:38.809Z,1031
2017-03-25T08:30:44.318Z,1031.1
2017-03-25T08:31:46.658Z,1031.1
2017-03-25T08:32:49.500Z,1031.1
2017-03-25T08:33:51.837Z,1031.1
2017-03-25T08:34:54.680Z,1031.1
2017-03-25T08:35:57.822Z,1031.1
2017-03-25T08:37:00.159Z,1031.1
2017-03-25T08:38:02.362Z,1031.1
2017-03-25T08:40:08.022Z,1031
2017-03-25T08:41:10.487Z,1031.1
2017-03-25T08:42:13.326Z,1031.1
2017-03-25T08:43:15.727Z,1031
2017-03-25T08:44:18.433Z,1031
2017-03-25T08:45:20.775Z,1031
2017-03-25T08:46:23.921Z,1031
2017-03-25T08:47:26.264Z,1031
2017-03-25T08:48:29.108Z,1031
2017-03-25T08:49:31.452Z,1031
2017-03-25T08:50:34.305Z,1031
2017-03-25T08:51:36.895Z,1031
2017-03-25T08:52:39.240Z,1031.1
2017-03-25T08:53:42.095Z,1031
2017-03-25T08:54:44.450Z,1031
2017-03-25T08:55:47.306Z,1031
2017-03-25T08:56:50.398Z,1031.1
2017-03-25T08:57:52.801Z,1031
2017-03-25T08:58:55.202Z,1031
2017-03-25T08:59:58.051Z,1031
2017-03-25T09:01:00.397Z,1031
2017-03-25T09:02:03.493Z,1030.9
2017-03-25T09:03:05.833Z,1031
2017-03-25T09:04:08.182Z,1031
2017-03-25T09:05:11.028Z,1031
2017-03-25T09:06:13.371Z,1031
2017-03-25T09:07:16.475Z,1031
2017-03-25T09:08:18.738Z,1031
2017-03-25T09:09:21.592Z,1031
2017-03-25T09:10:24.346Z,1030.9
2017-03-25T09:11:26.693Z,1030.9
2017-03-25T09:12:29.792Z,1030.9
2017-03-25T09:13:32.133Z,1030.9
2017-03-25T09:14:34.481Z,1030.9
2017-03-25T09:15:37.333Z,1030.9
2017-03-25T09:16:40.172Z,1030.9
2017-03-25T09:17:42.762Z,1030.9
2017-03-25T09:18:45.245Z,1030.9
2017-03-25T09:19:47.955Z,1030.9
2017-03-25T09:20:50.665Z,1030.9
2017-03-25T09:21:53.010Z,1030.9
2017-03-25T09:22:56.163Z,1030.8
2017-03-25T09:23:58.384Z,1030.9
2017-03-25T09:25:01.232Z,1030.9
2017-03-25T09:26:03.572Z,1030.8
2017-03-25T09:27:06.419Z,1030.8
2017-03-25T09:28:09.007Z,1030.8
2017-03-25T09:29:11.345Z,1030.8
2017-03-25T09:30:14.231Z,1030.7
2017-03-25T09:31:17.076Z,1030.8
2017-03-25T09:32:19.414Z,1030.7
2017-03-25T09:33:22.566Z,1030.8
2017-03-25T09:34:24.913Z,1030.7
2017-03-25T09:35:27.631Z,1030.8
2017-03-25T09:36:29.837Z,1030.7
2017-03-25T09:37:32.678Z,1030.7
2017-03-25T09:38:35.835Z,1030.7
2017-03-25T09:39:38.187Z,1030.8
2017-03-25T09:40:40.399Z,1030.7
2017-03-25T09:41:43.237Z,1030.7
2017-03-25T09:42:46.078Z,1030.7
2017-03-25T09:43:49.037Z,1030.7
2017-03-25T09:44:51.378Z,1030.6
2017-03-25T09:45:53.719Z,1030.6
2017-03-25T09:46:56.566Z,1030.6
2017-03-25T09:47:59.279Z,1030.6
2017-03-25T09:49:02.294Z,1030.6
2017-03-25T09:50:04.186Z,1030.5
2017-03-25T09:51:07.026Z,1030.5
2017-03-25T09:52:09.870Z,1030.6
2017-03-25T09:53:12.206Z,1030.6
2017-03-25T09:54:15.307Z,1030.5
2017-03-25T09:55:17.652Z,1030.5
2017-03-25T09:56:20.496Z,1030.6
2017-03-25T09:57:22.840Z,1030.5
2017-03-25T09:58:25.688Z,1030.5
2017-03-25T09:59:28.280Z,1030.5
2017-03-25T10:00:30.619Z,1030.5
2017-03-25T10:01:33.456Z,1030.5
2017-03-25T10:02:36.300Z,1030.5
2017-03-25T10:03:38.645Z,1030.5
2017-03-25T10:04:41.744Z,1030.5
2017-03-25T10:05:44.086Z,1030.5
2017-03-25T10:06:46.926Z,1030.5
2017-03-25T10:07:49.272Z,1030.4
2017-03-25T10:09:54.780Z,1030.4
2017-03-25T10:10:57.121Z,1030.4
2017-03-25T10:11:59.965Z,1030.4
2017-03-25T10:13:02.809Z,1030.4
2017-03-25T10:14:05.154Z,1030.3
2017-03-25T10:15:08.115Z,1030.3
2017-03-25T10:16:10.514Z,1030.3
2017-03-25T10:17:13.357Z,1030.3
2017-03-25T10:18:16.116Z,1030.3
2017-03-25T10:19:18.461Z,1030.3
2017-03-25T10:20:21.561Z,1030.3
2017-03-25T10:21:23.766Z,1030.3
2017-03-25T10:22:26.614Z,1030.3
2017-03-25T10:23:28.992Z,1030.3
2017-03-25T10:24:31.846Z,1030.2
2017-03-25T10:25:34.804Z,1030.3
2017-03-25T10:26:37.142Z,1030.3
2017-03-25T10:27:40.042Z,1030.3
2017-03-25T10:28:42.612Z,1030.3
2017-03-25T10:29:45.323Z,1030.3
2017-03-25T10:30:47.781Z,1030.2
2017-03-25T10:31:50.622Z,1030.2
2017-03-25T10:32:52.960Z,1030.2
2017-03-25T10:33:55.811Z,1030.2
2017-03-25T10:34:58.208Z,1030.2
2017-03-25T10:36:01.306Z,1030.2
2017-03-25T10:37:03.512Z,1030.2
2017-03-25T10:38:06.356Z,1030.2
2017-03-25T10:39:09.065Z,1030.2
2017-03-25T10:40:11.775Z,1030.1
2017-03-25T10:41:14.370Z,1030.2
2017-03-25T10:42:16.714Z,1030.2
2017-03-25T10:43:19.555Z,1030.1
2017-03-25T10:44:21.903Z,1030.2
2017-03-25T10:45:24.747Z,1030.1
2017-03-25T10:46:27.921Z,1030.1
2017-03-25T10:47:30.273Z,1030.1
2017-03-25T10:48:00.907Z,1030.1
2017-03-25T10:48:32.912Z,1030.1
2017-03-25T10:49:35.131Z,1030.1
2017-03-25T10:50:37.975Z,1030.1
2017-03-25T10:51:41.069Z,1030.1
2017-03-25T10:52:43.406Z,1030.1
2017-03-25T10:53:45.747Z,1030.1
2017-03-25T10:54:48.594Z,1030.1
2017-03-25T10:55:51.493Z,1030.1
2017-03-25T10:56:54.366Z,1030.1
2017-03-25T10:57:56.703Z,1030.1
2017-03-25T10:58:59.047Z,1030
2017-03-25T11:00:01.892Z,1030.1
2017-03-25T11:01:04.737Z,1030
2017-03-25T11:02:07.197Z,1030
2017-03-25T11:03:09.910Z,1030
2017-03-25T11:04:12.258Z,1030
2017-03-25T11:05:15.104Z,1029.9
2017-03-25T11:06:17.950Z,1029.9
2017-03-25T11:07:20.590Z,1029.9
2017-03-25T11:08:22.935Z,1029.9
2017-03-25T11:10:28.183Z,1029.9
2017-03-25T11:11:31.029Z,1029.8
2017-03-25T11:12:33.908Z,1029.8
2017-03-25T11:13:36.121Z,1029.9
2017-03-25T11:14:38.962Z,1029.8
2017-03-25T11:15:41.810Z,1029.8
2017-03-25T11:16:44.515Z,1029.8
2017-03-25T11:17:47.155Z,1029.8
2017-03-25T11:18:49.401Z,1029.8
2017-03-25T11:19:52.260Z,1029.7
2017-03-25T11:20:55.107Z,1029.7
2017-03-25T11:21:57.309Z,1029.7
2017-03-25T11:23:00.403Z,1029.7
2017-03-25T11:24:02.744Z,1029.7
2017-03-25T11:25:05.460Z,1029.7
2017-03-25T11:26:08.303Z,1029.7
2017-03-25T11:27:10.643Z,1029.7
2017-03-25T11:28:13.739Z,1029.7
2017-03-25T11:29:16.082Z,1029.6
2017-03-25T11:30:18.927Z,1029.6
2017-03-25T11:31:21.636Z,1029.6
2017-03-25T11:32:23.971Z,1029.7
2017-03-25T11:33:27.127Z,1029.6
2017-03-25T11:34:29.468Z,1029.6
2017-03-25T11:36:34.721Z,1029.6
2017-03-25T11:37:37.565Z,1029.5
2017-03-25T11:38:40.161Z,1029.6
2017-03-25T11:39:42.879Z,1029.6
2017-03-25T11:40:45.222Z,1029.6
2017-03-25T11:41:48.060Z,1029.5
2017-03-25T11:42:50.402Z,1029.4
2017-03-25T11:43:53.501Z,1029.4
2017-03-25T11:44:55.847Z,1029.5
2017-03-25T11:45:58.556Z,1029.4
2017-03-25T11:47:01.396Z,1029.4
2017-03-25T11:48:03.733Z,1029.4
2017-03-25T11:49:06.735Z,1029.4
2017-03-25T11:50:09.080Z,1029.3
2017-03-25T11:51:11.659Z,1029.2
2017-03-25T11:52:14.498Z,1029.3
2017-03-25T11:53:17.340Z,1029.2
2017-03-25T11:54:19.942Z,1029.2
2017-03-25T11:55:22.297Z,1029.3
2017-03-25T11:56:25.010Z,1029.2
2017-03-25T11:57:27.854Z,1029.2
2017-03-25T11:58:30.705Z,1029.2
2017-03-25T11:59:33.305Z,1029.1
2017-03-25T12:00:35.652Z,1029.1
2017-03-25T12:01:38.497Z,1029.1
2017-03-25T12:02:41.347Z,1029.1
2017-03-25T12:03:43.690Z,1029.1
2017-03-25T12:04:46.792Z,1029
2017-03-25T12:05:49.132Z,1029
2017-03-25T12:06:51.980Z,1029.1
2017-03-25T12:07:54.319Z,1029
2017-03-25T12:08:57.164Z,1029
2017-03-25T12:10:00.312Z,1028.9
2017-03-25T12:11:02.210Z,1028.9
2017-03-25T12:12:05.057Z,1028.9
2017-03-25T12:14:10.671Z,1028.9
2017-03-25T12:15:13.132Z,1028.9
2017-03-25T12:16:15.978Z,1028.8
2017-03-25T12:17:18.322Z,1028.8
2017-03-25T12:18:21.169Z,1028.8
2017-03-25T12:19:23.512Z,1028.8
2017-03-25T12:20:26.663Z,1028.8
2017-03-25T12:21:29.006Z,1028.8
2017-03-25T12:22:31.849Z,1028.8
2017-03-25T12:23:34.187Z,1028.7
2017-03-25T12:24:37.037Z,1028.7
2017-03-25T12:25:40.004Z,1028.7
2017-03-25T12:26:42.345Z,1028.7
2017-03-25T12:27:45.060Z,1028.6
2017-03-25T12:28:47.909Z,1028.7
2017-03-25T12:30:53.421Z,1028.7
2017-03-25T12:31:55.763Z,1028.6
2017-03-25T12:32:58.614Z,1028.6
2017-03-25T12:34:00.958Z,1028.6
2017-03-25T12:35:03.806Z,1028.5
2017-03-25T12:36:06.397Z,1028.5
2017-03-25T12:37:09.247Z,1028.5
2017-03-25T12:38:11.591Z,1028.5
2017-03-25T12:39:14.442Z,1028.5
2017-03-25T12:40:17.286Z,1028.5
2017-03-25T12:41:19.752Z,1028.5
2017-03-25T12:42:22.599Z,1028.5
2017-03-25T12:43:24.940Z,1028.5
2017-03-25T12:44:27.786Z,1028.4
2017-03-25T12:45:30.143Z,1028.5
2017-03-25T12:46:33.239Z,1028.5
2017-03-25T12:47:35.963Z,1028.5
2017-03-25T12:48:38.308Z,1028.4
2017-03-25T12:49:41.154Z,1028.5
2017-03-25T12:50:43.497Z,1028.4
2017-03-25T12:52:49.415Z,1028.4
2017-03-25T12:53:51.765Z,1028.4
2017-03-25T12:54:54.618Z,1028.3
2017-03-25T12:55:57.020Z,1028.4
2017-03-25T12:56:59.864Z,1028.3
2017-03-25T12:58:02.454Z,1028.1
2017-03-25T12:59:04.802Z,1028.1
2017-03-25T13:00:07.653Z,1028.1
2017-03-25T13:01:10.501Z,1028.1
2017-03-25T13:02:12.849Z,1028.1
2017-03-25T13:03:15.990Z,1028
2017-03-25T13:04:18.208Z,1028
2017-03-25T13:06:23.470Z,1028
2017-03-25T13:07:26.312Z,1028
2017-03-25T13:08:29.272Z,1028
2017-03-25T13:09:31.618Z,1028
2017-03-25T13:10:34.456Z,1027.9
2017-03-25T13:11:36.805Z,1028
2017-03-25T13:12:39.649Z,1027.9
2017-03-25T13:13:42.745Z,1027.9
2017-03-25T13:14:45.086Z,1027.8
2017-03-25T13:15:47.797Z,1027.7
2017-03-25T13:16:50.142Z,1027.8
2017-03-25T13:17:52.989Z,1027.8
2017-03-25T13:18:56.146Z,1027.8
2017-03-25T13:19:58.354Z,1027.8
2017-03-25T13:21:00.931Z,1027.8
2017-03-25T13:22:03.699Z,1027.8
2017-03-25T13:23:06.542Z,1027.7
2017-03-25T13:24:09.138Z,1027.7
2017-03-25T13:25:11.854Z,1027.7
2017-03-25T13:26:14.191Z,1027.7
2017-03-25T13:27:17.035Z,1027.6
2017-03-25T13:28:19.890Z,1027.7
2017-03-25T13:29:22.579Z,1027.7
2017-03-25T13:30:24.925Z,1027.7
2017-03-25T13:31:27.768Z,1027.6